sensor_id;sensor_type;location;lat;lon;timestamp;pressure;altitude;pressure_sealevel;temperature;humidity
57562;BME280;43397;51.530;5.974;2023-02-16T00:01:15;102065.63;;;6.07;100.00
57562;BME280;43397;51.530;5.974;2023-02-16T00:03:41;102061.25;;;6.07;100.00
57562;BME280;43397;51.530;5.974;2023-02-16T00:06:07;102055.97;;;6.07;100.00
57562;BME280;43397;51.530;5.974;2023-02-16T00:08:33;102051.50;;;6.05;100.00
57562;BME280;43397;51.530;5.974;2023-02-16T00:10:58;102044.34;;;6.01;100.00
57562;BME280;43397;51.530;5.974;2023-02-16T00:13:27;102042.63;;;6.01;100.00
57562;BME280;43397;51.530;5.974;2023-02-16T00:15:53;102041.06;;;6.09;100.00
57562;BME280;43397;51.530;5.974;2023-02-16T00:18:20;102048.47;;;6.21;100.00
57562;BME280;43397;51.530;5.974;2023-02-16T00:20:47;102048.03;;;6.07;100.00
57562;BME280;43397;51.530;5.974;2023-02-16T00:23:13;102040.66;;;5.95;100.00
57562;BME280;43397;51.530;5.974;2023-02-16T00:25:39;102021.53;;;5.74;100.00
57562;BME280;43397;51.530;5.974;2023-02-16T00:28:12;102032.41;;;5.85;100.00
57562;BME280;43397;51.530;5.974;2023-02-16T00:30:40;102035.91;;;5.84;100.00
57562;BME280;43397;51.530;5.974;2023-02-16T00:33:12;102037.59;;;5.82;100.00
57562;BME280;43397;51.530;5.974;2023-02-16T00:35:38;102021.53;;;5.74;100.00
57562;BME280;43397;51.530;5.974;2023-02-16T00:38:04;102034.38;;;5.63;100.00
57562;BME280;43397;51.530;5.974;2023-02-16T00:40:30;102031.25;;;5.48;100.00
57562;BME280;43397;51.530;5.974;2023-02-16T00:42:56;102023.47;;;5.51;100.00
57562;BME280;43397;51.530;5.974;2023-02-16T00:45:22;102031.47;;;5.54;100.00
57562;BME280;43397;51.530;5.974;2023-02-16T00:47:50;102039.38;;;5.54;100.00
57562;BME280;43397;51.530;5.974;2023-02-16T00:50:19;102037.44;;;5.48;100.00
57562;BME280;43397;51.530;5.974;2023-02-16T00:52:47;102010.16;;;5.19;100.00
57562;BME280;43397;51.530;5.974;2023-02-16T00:55:15;102028.94;;;5.30;100.00
57562;BME280;43397;51.530;5.974;2023-02-16T00:57:43;102014.69;;;5.23;100.00
57562;BME280;43397;51.530;5.974;2023-02-16T01:00:14;102037.69;;;5.29;100.00
57562;BME280;43397;51.530;5.974;2023-02-16T01:02:41;102040.53;;;5.08;100.00
57562;BME280;43397;51.530;5.974;2023-02-16T01:05:10;102037.47;;;4.95;100.00
57562;BME280;43397;51.530;5.974;2023-02-16T01:07:37;102033.06;;;4.94;100.00
57562;BME280;43397;51.530;5.974;2023-02-16T01:10:03;101999.16;;;5.05;100.00
57562;BME280;43397;51.530;5.974;2023-02-16T01:12:29;102033.31;;;5.29;100.00
57562;BME280;43397;51.530;5.974;2023-02-16T01:14:56;102030.97;;;5.39;100.00
57562;BME280;43397;51.530;5.974;2023-02-16T01:17:22;102022.81;;;5.31;100.00
57562;BME280;43397;51.530;5.974;2023-02-16T01:19:48;102011.31;;;5.29;100.00
57562;BME280;43397;51.530;5.974;2023-02-16T01:22:15;102037.19;;;5.41;100.00
57562;BME280;43397;51.530;5.974;2023-02-16T01:24:41;102030.53;;;5.25;100.00
57562;BME280;43397;51.530;5.974;2023-02-16T01:27:09;102036.00;;;5.31;100.00
57562;BME280;43397;51.530;5.974;2023-02-16T01:29:35;102025.72;;;5.39;100.00
57562;BME280;43397;51.530;5.974;2023-02-16T01:32:01;102040.59;;;5.36;100.00
57562;BME280;43397;51.530;5.974;2023-02-16T01:34:27;102032.38;;;5.27;100.00
57562;BME280;43397;51.530;5.974;2023-02-16T01:36:52;102030.72;;;5.31;100.00
57562;BME280;43397;51.530;5.974;2023-02-16T01:39:19;102024.69;;;5.35;100.00
57562;BME280;43397;51.530;5.974;2023-02-16T01:42:07;102023.91;;;5.38;100.00
57562;BME280;43397;51.530;5.974;2023-02-16T01:44:40;102008.66;;;5.27;100.00
57562;BME280;43397;51.530;5.974;2023-02-16T01:47:14;102016.16;;;5.42;100.00
57562;BME280;43397;51.530;5.974;2023-02-16T01:49:43;102007.75;;;5.27;100.00
57562;BME280;43397;51.530;5.974;2023-02-16T01:52:13;101999.94;;;5.30;100.00
57562;BME280;43397;51.530;5.974;2023-02-16T01:54:49;102010.28;;;5.24;100.00
57562;BME280;43397;51.530;5.974;2023-02-16T01:57:36;102014.19;;;5.09;100.00
57562;BME280;43397;51.530;5.974;2023-02-16T02:00:13;102003.66;;;5.09;100.00
57562;BME280;43397;51.530;5.974;2023-02-16T02:02:41;102003.50;;;5.03;100.00
57562;BME280;43397;51.530;5.974;2023-02-16T02:05:18;101996.91;;;4.90;100.00
57562;BME280;43397;51.530;5.974;2023-02-16T02:07:50;102006.81;;;4.98;100.00
57562;BME280;43397;51.530;5.974;2023-02-16T02:10:22;101995.66;;;4.79;100.00
57562;BME280;43397;51.530;5.974;2023-02-16T02:12:51;101981.44;;;4.74;100.00
57562;BME280;43397;51.530;5.974;2023-02-16T02:15:25;102004.66;;;4.86;100.00
57562;BME280;43397;51.530;5.974;2023-02-16T02:17:54;102000.16;;;4.83;100.00
57562;BME280;43397;51.530;5.974;2023-02-16T02:20:23;101977.84;;;4.72;100.00
57562;BME280;43397;51.530;5.974;2023-02-16T02:23:23;101971.41;;;4.89;100.00
57562;BME280;43397;51.530;5.974;2023-02-16T02:29:21;101955.34;;;4.82;100.00
57562;BME280;43397;51.530;5.974;2023-02-16T02:31:58;101962.34;;;4.81;100.00
57562;BME280;43397;51.530;5.974;2023-02-16T02:34:37;101962.06;;;4.99;100.00
57562;BME280;43397;51.530;5.974;2023-02-16T02:37:11;101967.13;;;4.93;100.00
57562;BME280;43397;51.530;5.974;2023-02-16T02:39:50;101969.22;;;4.76;100.00
57562;BME280;43397;51.530;5.974;2023-02-16T02:42:26;101968.75;;;4.62;100.00
57562;BME280;43397;51.530;5.974;2023-02-16T02:45:03;101956.56;;;4.66;100.00
57562;BME280;43397;51.530;5.974;2023-02-16T02:47:38;101956.69;;;4.69;100.00
57562;BME280;43397;51.530;5.974;2023-02-16T02:53:06;101961.84;;;4.66;100.00
57562;BME280;43397;51.530;5.974;2023-02-16T02:55:35;101969.91;;;4.70;100.00
57562;BME280;43397;51.530;5.974;2023-02-16T02:58:04;101966.41;;;4.71;100.00
57562;BME280;43397;51.530;5.974;2023-02-16T03:00:35;101961.31;;;4.76;100.00
57562;BME280;43397;51.530;5.974;2023-02-16T03:03:05;101954.66;;;4.87;100.00
57562;BME280;43397;51.530;5.974;2023-02-16T03:05:33;101947.72;;;4.64;100.00
57562;BME280;43397;51.530;5.974;2023-02-16T03:08:04;101950.53;;;4.68;100.00
57562;BME280;43397;51.530;5.974;2023-02-16T03:10:35;101940.81;;;4.67;100.00
57562;BME280;43397;51.530;5.974;2023-02-16T03:13:03;101941.88;;;4.72;100.00
57562;BME280;43397;51.530;5.974;2023-02-16T03:15:31;101931.59;;;4.53;100.00
57562;BME280;43397;51.530;5.974;2023-02-16T03:17:59;101927.88;;;4.48;100.00
57562;BME280;43397;51.530;5.974;2023-02-16T03:20:26;101930.16;;;4.63;100.00
57562;BME280;43397;51.530;5.974;2023-02-16T03:22:52;101914.13;;;4.57;100.00
57562;BME280;43397;51.530;5.974;2023-02-16T03:25:20;101932.69;;;4.60;100.00
57562;BME280;43397;51.530;5.974;2023-02-16T03:27:47;101940.59;;;4.60;100.00
57562;BME280;43397;51.530;5.974;2023-02-16T03:30:14;101891.91;;;4.48;100.00
57562;BME280;43397;51.530;5.974;2023-02-16T03:32:42;101932.88;;;4.66;100.00
57562;BME280;43397;51.530;5.974;2023-02-16T03:35:10;101934.31;;;4.83;100.00
57562;BME280;43397;51.530;5.974;2023-02-16T03:37:36;101916.47;;;4.74;100.00
57562;BME280;43397;51.530;5.974;2023-02-16T03:40:04;101928.47;;;4.65;100.00
57562;BME280;43397;51.530;5.974;2023-02-16T03:42:31;101929.47;;;4.68;100.00
57562;BME280;43397;51.530;5.974;2023-02-16T03:44:58;101929.34;;;4.65;100.00
57562;BME280;43397;51.530;5.974;2023-02-16T03:47:24;101928.16;;;4.83;100.00
57562;BME280;43397;51.530;5.974;2023-02-16T03:49:50;101919.97;;;4.73;100.00
57562;BME280;43397;51.530;5.974;2023-02-16T03:52:17;101927.66;;;4.67;100.00
57562;BME280;43397;51.530;5.974;2023-02-16T03:54:43;101934.56;;;4.64;100.00
57562;BME280;43397;51.530;5.974;2023-02-16T03:57:10;101945.19;;;4.67;100.00
57562;BME280;43397;51.530;5.974;2023-02-16T03:59:36;101947.84;;;4.67;100.00
57562;BME280;43397;51.530;5.974;2023-02-16T04:02:01;101943.75;;;4.49;100.00
57562;BME280;43397;51.530;5.974;2023-02-16T04:04:27;101937.63;;;4.50;100.00
57562;BME280;43397;51.530;5.974;2023-02-16T04:06:54;101940.47;;;4.57;100.00
57562;BME280;43397;51.530;5.974;2023-02-16T04:09:22;101942.50;;;4.65;100.00
57562;BME280;43397;51.530;5.974;2023-02-16T04:11:48;101924.56;;;4.53;100.00
57562;BME280;43397;51.530;5.974;2023-02-16T04:14:13;101925.63;;;4.59;100.00
57562;BME280;43397;51.530;5.974;2023-02-16T04:16:39;101929.19;;;4.61;100.00
57562;BME280;43397;51.530;5.974;2023-02-16T04:19:05;101935.09;;;4.53;100.00
57562;BME280;43397;51.530;5.974;2023-02-16T04:21:31;101920.84;;;4.47;100.00
57562;BME280;43397;51.530;5.974;2023-02-16T04:23:57;101933.44;;;4.57;100.00
57562;BME280;43397;51.530;5.974;2023-02-16T04:26:24;101917.72;;;4.59;100.00
57562;BME280;43397;51.530;5.974;2023-02-16T04:28:50;101912.38;;;4.57;100.00
57562;BME280;43397;51.530;5.974;2023-02-16T04:31:16;101919.81;;;4.69;100.00
57562;BME280;43397;51.530;5.974;2023-02-16T04:33:41;101932.09;;;4.68;100.00
57562;BME280;43397;51.530;5.974;2023-02-16T04:36:08;101935.75;;;4.73;100.00
57562;BME280;43397;51.530;5.974;2023-02-16T04:38:34;101937.66;;;4.78;100.00
57562;BME280;43397;51.530;5.974;2023-02-16T04:40:59;101941.38;;;4.84;100.00
57562;BME280;43397;51.530;5.974;2023-02-16T04:43:27;101943.72;;;4.75;100.00
57562;BME280;43397;51.530;5.974;2023-02-16T04:45:52;101935.56;;;4.67;100.00
57562;BME280;43397;51.530;5.974;2023-02-16T04:48:18;101942.06;;;4.79;100.00
57562;BME280;43397;51.530;5.974;2023-02-16T04:50:44;101941.38;;;4.84;100.00
57562;BME280;43397;51.530;5.974;2023-02-16T04:53:09;101929.66;;;5.02;100.00
57562;BME280;43397;51.530;5.974;2023-02-16T04:55:35;101935.00;;;5.05;100.00
57562;BME280;43397;51.530;5.974;2023-02-16T04:58:01;101934.09;;;5.31;100.00
57562;BME280;43397;51.530;5.974;2023-02-16T05:00:29;101936.75;;;5.31;100.00
57562;BME280;43397;51.530;5.974;2023-02-16T05:02:55;101930.81;;;5.11;100.00
57562;BME280;43397;51.530;5.974;2023-02-16T05:05:21;101921.50;;;4.94;100.00
57562;BME280;43397;51.530;5.974;2023-02-16T05:07:49;101914.53;;;4.96;100.00
57562;BME280;43397;51.530;5.974;2023-02-16T05:10:15;101925.81;;;5.19;100.00
57562;BME280;43397;51.530;5.974;2023-02-16T05:12:40;101927.03;;;5.02;100.00
57562;BME280;43397;51.530;5.974;2023-02-16T05:15:06;101932.50;;;5.09;100.00
57562;BME280;43397;51.530;5.974;2023-02-16T05:17:33;101936.09;;;5.11;100.00
57562;BME280;43397;51.530;5.974;2023-02-16T05:19:59;101916.47;;;5.02;100.00
57562;BME280;43397;51.530;5.974;2023-02-16T05:22:27;101912.50;;;5.14;100.00
57562;BME280;43397;51.530;5.974;2023-02-16T05:24:53;101915.22;;;5.18;100.00
57562;BME280;43397;51.530;5.974;2023-02-16T05:27:21;101915.25;;;5.19;100.00
57562;BME280;43397;51.530;5.974;2023-02-16T05:29:47;101915.59;;;5.30;100.00
57562;BME280;43397;51.530;5.974;2023-02-16T05:32:14;101919.06;;;5.29;100.00
57562;BME280;43397;51.530;5.974;2023-02-16T05:34:41;101932.56;;;5.40;100.00
57562;BME280;43397;51.530;5.974;2023-02-16T05:37:07;101928.59;;;5.24;100.00
57562;BME280;43397;51.530;5.974;2023-02-16T05:39:33;101912.84;;;5.27;100.00
57562;BME280;43397;51.530;5.974;2023-02-16T05:41:59;101919.38;;;5.38;100.00
57562;BME280;43397;51.530;5.974;2023-02-16T05:44:25;101929.78;;;5.64;100.00
57562;BME280;43397;51.530;5.974;2023-02-16T05:46:50;101930.63;;;5.63;100.00
57562;BME280;43397;51.530;5.974;2023-02-16T05:49:16;101932.81;;;5.77;100.00
57562;BME280;43397;51.530;5.974;2023-02-16T05:51:44;101917.63;;;5.69;100.00
57562;BME280;43397;51.530;5.974;2023-02-16T05:54:12;101934.91;;;5.89;100.00
57562;BME280;43397;51.530;5.974;2023-02-16T05:56:38;101927.31;;;5.70;100.00
57562;BME280;43397;51.530;5.974;2023-02-16T05:59:03;101929.19;;;5.74;100.00
57562;BME280;43397;51.530;5.974;2023-02-16T06:01:29;101925.63;;;5.72;100.00
57562;BME280;43397;51.530;5.974;2023-02-16T06:03:55;101921.78;;;5.61;100.00
57562;BME280;43397;51.530;5.974;2023-02-16T06:06:21;101911.22;;;5.61;100.00
57562;BME280;43397;51.530;5.974;2023-02-16T06:08:48;101918.34;;;5.63;100.00
57562;BME280;43397;51.530;5.974;2023-02-16T06:11:14;101916.44;;;5.89;100.00
57562;BME280;43397;51.530;5.974;2023-02-16T06:13:40;101907.78;;;5.63;100.00
57562;BME280;43397;51.530;5.974;2023-02-16T06:16:06;101907.56;;;5.86;100.00
57562;BME280;43397;51.530;5.974;2023-02-16T06:18:32;101916.38;;;5.88;100.00
57562;BME280;43397;51.530;5.974;2023-02-16T06:20:58;101918.00;;;5.83;100.00
57562;BME280;43397;51.530;5.974;2023-02-16T06:23:24;101909.41;;;5.90;100.00
57562;BME280;43397;51.530;5.974;2023-02-16T06:25:51;101915.69;;;5.93;100.00
57562;BME280;43397;51.530;5.974;2023-02-16T06:28:16;101929.56;;;6.16;100.00
57562;BME280;43397;51.530;5.974;2023-02-16T06:30:42;101924.63;;;5.98;100.00
57562;BME280;43397;51.530;5.974;2023-02-16T06:33:08;101933.78;;;6.10;100.00
57562;BME280;43397;51.530;5.974;2023-02-16T06:35:35;101941.84;;;6.16;100.00
57562;BME280;43397;51.530;5.974;2023-02-16T06:38:01;101921.53;;;6.13;100.00
57562;BME280;43397;51.530;5.974;2023-02-16T06:40:26;101922.16;;;6.05;100.00
57562;BME280;43397;51.530;5.974;2023-02-16T06:42:53;101908.03;;;6.03;100.00
57562;BME280;43397;51.530;5.974;2023-02-16T06:45:19;101906.47;;;6.09;100.00
57562;BME280;43397;51.530;5.974;2023-02-16T06:47:45;101905.16;;;6.27;100.00
57562;BME280;43397;51.530;5.974;2023-02-16T06:50:11;101919.00;;;6.18;100.00
57562;BME280;43397;51.530;5.974;2023-02-16T06:52:38;101915.25;;;6.08;100.00
57562;BME280;43397;51.530;5.974;2023-02-16T06:55:04;101917.94;;;6.10;100.00
57562;BME280;43397;51.530;5.974;2023-02-16T06:57:30;101923.09;;;6.40;100.00
57562;BME280;43397;51.530;5.974;2023-02-16T06:59:57;101927.31;;;6.32;100.00
57562;BME280;43397;51.530;5.974;2023-02-16T07:02:23;101924.88;;;6.39;100.00
57562;BME280;43397;51.530;5.974;2023-02-16T07:04:48;101901.81;;;5.99;100.00
57562;BME280;43397;51.530;5.974;2023-02-16T07:07:14;101930.13;;;6.38;100.00
57562;BME280;43397;51.530;5.974;2023-02-16T07:09:40;101944.69;;;6.57;100.00
57562;BME280;43397;51.530;5.974;2023-02-16T07:12:06;101940.25;;;6.56;100.00
57562;BME280;43397;51.530;5.974;2023-02-16T07:14:33;101936.81;;;6.58;100.00
57562;BME280;43397;51.530;5.974;2023-02-16T07:17:00;101944.00;;;6.64;100.00
57562;BME280;43397;51.530;5.974;2023-02-16T07:19:26;101937.34;;;6.80;100.00
57562;BME280;43397;51.530;5.974;2023-02-16T07:21:53;101930.66;;;6.59;100.00
57562;BME280;43397;51.530;5.974;2023-02-16T07:24:19;101949.13;;;6.58;100.00
57562;BME280;43397;51.530;5.974;2023-02-16T07:26:44;101938.72;;;6.64;100.00
57562;BME280;43397;51.530;5.974;2023-02-16T07:29:10;101941.38;;;6.66;100.00
57562;BME280;43397;51.530;5.974;2023-02-16T07:31:36;101946.88;;;6.75;100.00
57562;BME280;43397;51.530;5.974;2023-02-16T07:34:03;101949.69;;;6.81;100.00
57562;BME280;43397;51.530;5.974;2023-02-16T07:36:29;101939.94;;;6.78;100.00
57562;BME280;43397;51.530;5.974;2023-02-16T07:38:55;101936.97;;;6.66;100.00
57562;BME280;43397;51.530;5.974;2023-02-16T07:41:20;101947.25;;;6.89;100.00
57562;BME280;43397;51.530;5.974;2023-02-16T07:43:47;101944.59;;;6.89;100.00
57562;BME280;43397;51.530;5.974;2023-02-16T07:46:13;101932.72;;;6.71;100.00
57562;BME280;43397;51.530;5.974;2023-02-16T07:48:39;101947.88;;;6.78;100.00
57562;BME280;43397;51.530;5.974;2023-02-16T07:51:06;101961.91;;;7.12;100.00
57562;BME280;43397;51.530;5.974;2023-02-16T07:53:32;101941.56;;;7.10;99.71
57562;BME280;43397;51.530;5.974;2023-02-16T07:55:57;101944.88;;;6.99;99.38
57562;BME280;43397;51.530;5.974;2023-02-16T07:58:23;101933.72;;;7.13;99.46
57562;BME280;43397;51.530;5.974;2023-02-16T08:00:49;101942.09;;;7.33;98.71
57562;BME280;43397;51.530;5.974;2023-02-16T08:03:15;101934.81;;;7.22;98.26
57562;BME280;43397;51.530;5.974;2023-02-16T08:05:41;101942.69;;;7.59;97.63
57562;BME280;43397;51.530;5.974;2023-02-16T08:08:08;101943.78;;;7.69;97.39
57562;BME280;43397;51.530;5.974;2023-02-16T08:10:33;101951.63;;;7.66;96.78
57562;BME280;43397;51.530;5.974;2023-02-16T08:12:59;101952.19;;;7.92;96.40
57562;BME280;43397;51.530;5.974;2023-02-16T08:15:25;101946.44;;;7.70;95.78
57562;BME280;43397;51.530;5.974;2023-02-16T08:17:51;101955.88;;;8.00;95.83
57562;BME280;43397;51.530;5.974;2023-02-16T08:20:16;101946.34;;;8.08;94.80
57562;BME280;43397;51.530;5.974;2023-02-16T08:22:42;101945.13;;;8.36;94.14
57562;BME280;43397;51.530;5.974;2023-02-16T08:25:09;101940.94;;;8.48;92.59
57562;BME280;43397;51.530;5.974;2023-02-16T08:27:35;101926.97;;;8.58;91.80
57562;BME280;43397;51.530;5.974;2023-02-16T08:30:01;101930.38;;;8.51;91.15
57562;BME280;43397;51.530;5.974;2023-02-16T08:32:27;101932.19;;;8.52;91.15
57562;BME280;43397;51.530;5.974;2023-02-16T08:34:53;101943.03;;;8.67;90.74
57562;BME280;43397;51.530;5.974;2023-02-16T08:37:19;101938.03;;;8.85;90.30
57562;BME280;43397;51.530;5.974;2023-02-16T08:39:44;101947.00;;;8.94;89.75
57562;BME280;43397;51.530;5.974;2023-02-16T08:42:13;101956.03;;;9.05;88.95
57562;BME280;43397;51.530;5.974;2023-02-16T08:44:39;101948.19;;;9.14;88.86
57562;BME280;43397;51.530;5.974;2023-02-16T08:47:04;101945.63;;;9.17;89.38
57562;BME280;43397;51.530;5.974;2023-02-16T08:49:30;101956.19;;;9.16;89.55
57562;BME280;43397;51.530;5.974;2023-02-16T08:51:57;101949.00;;;9.09;89.47
57562;BME280;43397;51.530;5.974;2023-02-16T08:54:25;101968.50;;;9.12;89.09
57562;BME280;43397;51.530;5.974;2023-02-16T08:56:51;101961.75;;;8.76;90.11
57562;BME280;43397;51.530;5.974;2023-02-16T08:59:21;101957.88;;;8.56;90.49
57562;BME280;43397;51.530;5.974;2023-02-16T09:01:49;101963.25;;;8.62;90.65
57562;BME280;43397;51.530;5.974;2023-02-16T09:04:16;101959.09;;;8.76;90.38
57562;BME280;43397;51.530;5.974;2023-02-16T09:06:44;101968.88;;;8.80;90.66
57562;BME280;43397;51.530;5.974;2023-02-16T09:09:11;101981.28;;;8.83;89.96
57562;BME280;43397;51.530;5.974;2023-02-16T09:11:38;101983.25;;;8.93;89.67
57562;BME280;43397;51.530;5.974;2023-02-16T09:14:05;101967.25;;;8.90;89.29
57562;BME280;43397;51.530;5.974;2023-02-16T09:16:32;101985.34;;;9.13;88.63
57562;BME280;43397;51.530;5.974;2023-02-16T09:18:59;101992.53;;;9.21;89.11
57562;BME280;43397;51.530;5.974;2023-02-16T09:21:25;101977.47;;;9.20;88.68
57562;BME280;43397;51.530;5.974;2023-02-16T09:23:53;101980.94;;;9.15;88.46
57562;BME280;43397;51.530;5.974;2023-02-16T09:26:21;101988.16;;;9.23;89.10
57562;BME280;43397;51.530;5.974;2023-02-16T09:28:48;101990.69;;;9.17;89.38
57562;BME280;43397;51.530;5.974;2023-02-16T09:31:16;101987.13;;;9.15;89.45
57562;BME280;43397;51.530;5.974;2023-02-16T09:33:43;101981.78;;;9.14;89.29
57562;BME280;43397;51.530;5.974;2023-02-16T09:36:10;101980.69;;;9.01;89.97
57562;BME280;43397;51.530;5.974;2023-02-16T09:38:37;101986.41;;;9.25;89.60
57562;BME280;43397;51.530;5.974;2023-02-16T09:41:17;101989.03;;;9.24;89.69
57562;BME280;43397;51.530;5.974;2023-02-16T09:43:53;102000.84;;;9.43;89.96
57562;BME280;43397;51.530;5.974;2023-02-16T09:46:24;102002.72;;;9.52;93.21
57562;BME280;43397;51.530;5.974;2023-02-16T09:48:52;102008.91;;;9.54;94.23
57562;BME280;43397;51.530;5.974;2023-02-16T09:51:22;102012.50;;;9.56;96.20
57562;BME280;43397;51.530;5.974;2023-02-16T09:53:52;102011.09;;;9.23;95.07
57562;BME280;43397;51.530;5.974;2023-02-16T09:56:23;102014.84;;;9.36;96.65
57562;BME280;43397;51.530;5.974;2023-02-16T09:58:56;102004.59;;;9.02;97.86
57562;BME280;43397;51.530;5.974;2023-02-16T10:01:26;101996.94;;;9.19;98.95
57562;BME280;43397;51.530;5.974;2023-02-16T10:04:04;102009.09;;;9.06;100.00
57562;BME280;43397;51.530;5.974;2023-02-16T10:06:49;102018.31;;;9.32;100.00
57562;BME280;43397;51.530;5.974;2023-02-16T10:09:19;102004.72;;;9.09;100.00
57562;BME280;43397;51.530;5.974;2023-02-16T10:11:48;101996.78;;;9.12;100.00
57562;BME280;43397;51.530;5.974;2023-02-16T10:14:23;102001.59;;;9.34;100.00
57562;BME280;43397;51.530;5.974;2023-02-16T10:16:53;101999.91;;;9.41;100.00
57562;BME280;43397;51.530;5.974;2023-02-16T10:19:24;101980.47;;;9.45;99.95
57562;BME280;43397;51.530;5.974;2023-02-16T10:21:54;101987.56;;;9.44;98.72
57562;BME280;43397;51.530;5.974;2023-02-16T10:24:22;101983.31;;;9.57;99.99
57562;BME280;43397;51.530;5.974;2023-02-16T10:26:54;101976.84;;;9.38;98.72
57562;BME280;43397;51.530;5.974;2023-02-16T10:29:25;101976.06;;;9.44;98.32
57562;BME280;43397;51.530;5.974;2023-02-16T10:32:02;101962.91;;;9.52;98.88
57562;BME280;43397;51.530;5.974;2023-02-16T10:34:43;101972.78;;;9.62;99.65
57562;BME280;43397;51.530;5.974;2023-02-16T10:37:20;101962.75;;;9.42;99.14
57562;BME280;43397;51.530;5.974;2023-02-16T10:39:53;101964.47;;;9.37;100.00
57562;BME280;43397;51.530;5.974;2023-02-16T10:42:29;101972.53;;;9.45;99.74
57562;BME280;43397;51.530;5.974;2023-02-16T10:45:04;101988.69;;;9.60;100.00
57562;BME280;43397;51.530;5.974;2023-02-16T10:47:34;101981.75;;;9.72;100.00
57562;BME280;43397;51.530;5.974;2023-02-16T10:50:03;101987.63;;;9.47;100.00
57562;BME280;43397;51.530;5.974;2023-02-16T10:52:33;101980.81;;;9.68;100.00
57562;BME280;43397;51.530;5.974;2023-02-16T10:55:00;101982.41;;;9.55;100.00
57562;BME280;43397;51.530;5.974;2023-02-16T10:57:28;101984.53;;;9.20;100.00
57562;BME280;43397;51.530;5.974;2023-02-16T10:59:56;101983.50;;;9.09;100.00
57562;BME280;43397;51.530;5.974;2023-02-16T11:02:24;101983.25;;;8.95;100.00
57562;BME280;43397;51.530;5.974;2023-02-16T11:04:52;101980.25;;;8.75;100.00
57562;BME280;43397;51.530;5.974;2023-02-16T11:07:20;101979.78;;;8.97;100.00
57562;BME280;43397;51.530;5.974;2023-02-16T11:09:48;101979.69;;;8.93;100.00
57562;BME280;43397;51.530;5.974;2023-02-16T11:12:25;101968.16;;;8.89;100.00
57562;BME280;43397;51.530;5.974;2023-02-16T11:14:53;101972.06;;;9.13;100.00
57562;BME280;43397;51.530;5.974;2023-02-16T11:17:22;101962.13;;;8.99;100.00
57562;BME280;43397;51.530;5.974;2023-02-16T11:19:51;101965.19;;;9.25;100.00
57562;BME280;43397;51.530;5.974;2023-02-16T11:22:32;101967.00;;;9.28;100.00
57562;BME280;43397;51.530;5.974;2023-02-16T11:25:23;101962.00;;;9.51;100.00
57562;BME280;43397;51.530;5.974;2023-02-16T11:27:51;101969.03;;;9.49;100.00
57562;BME280;43397;51.530;5.974;2023-02-16T11:30:27;101969.16;;;9.57;100.00
57562;BME280;43397;51.530;5.974;2023-02-16T11:32:54;101979.72;;;9.52;100.00
57562;BME280;43397;51.530;5.974;2023-02-16T11:35:20;101989.69;;;9.70;100.00
57562;BME280;43397;51.530;5.974;2023-02-16T11:37:47;101980.06;;;9.77;100.00
57562;BME280;43397;51.530;5.974;2023-02-16T11:40:19;101980.94;;;9.77;100.00
57562;BME280;43397;51.530;5.974;2023-02-16T11:42:48;101967.44;;;9.59;100.00
57562;BME280;43397;51.530;5.974;2023-02-16T11:45:26;101992.38;;;9.73;100.00
57562;BME280;43397;51.530;5.974;2023-02-16T11:47:55;102005.38;;;9.53;100.00
57562;BME280;43397;51.530;5.974;2023-02-16T11:50:23;102002.47;;;9.36;100.00
57562;BME280;43397;51.530;5.974;2023-02-16T11:52:52;101996.06;;;9.22;100.00
57562;BME280;43397;51.530;5.974;2023-02-16T11:55:22;101984.59;;;9.21;100.00
57562;BME280;43397;51.530;5.974;2023-02-16T11:57:49;101983.59;;;9.15;100.00
57562;BME280;43397;51.530;5.974;2023-02-16T12:00:17;101987.97;;;9.14;100.00
57562;BME280;43397;51.530;5.974;2023-02-16T12:05:50;101961.97;;;8.89;100.00
57562;BME280;43397;51.530;5.974;2023-02-16T12:08:32;101957.38;;;8.78;100.00
57562;BME280;43397;51.530;5.974;2023-02-16T12:11:16;101941.47;;;8.78;100.00
57562;BME280;43397;51.530;5.974;2023-02-16T12:13:48;101936.94;;;8.71;100.00
57562;BME280;43397;51.530;5.974;2023-02-16T12:16:23;101932.16;;;9.05;100.00
57562;BME280;43397;51.530;5.974;2023-02-16T12:19:02;101925.81;;;8.97;100.00
57562;BME280;43397;51.530;5.974;2023-02-16T12:21:36;101930.59;;;9.21;100.00
57562;BME280;43397;51.530;5.974;2023-02-16T12:24:13;101931.22;;;9.64;100.00
57562;BME280;43397;51.530;5.974;2023-02-16T12:26:45;101925.88;;;9.61;100.00
57562;BME280;43397;51.530;5.974;2023-02-16T12:32:25;101917.91;;;9.62;100.00
57562;BME280;43397;51.530;5.974;2023-02-16T12:35:02;101915.22;;;9.59;100.00
57562;BME280;43397;51.530;5.974;2023-02-16T12:37:38;101927.66;;;9.60;100.00
57562;BME280;43397;51.530;5.974;2023-02-16T12:40:19;101911.03;;;9.77;100.00
57562;BME280;43397;51.530;5.974;2023-02-16T12:43:01;101907.41;;;9.70;100.00
57562;BME280;43397;51.530;5.974;2023-02-16T12:45:35;101890.59;;;9.71;100.00
57562;BME280;43397;51.530;5.974;2023-02-16T12:48:14;101895.91;;;9.71;100.00
57562;BME280;43397;51.530;5.974;2023-02-16T12:50:45;101907.44;;;9.72;100.00
57562;BME280;43397;51.530;5.974;2023-02-16T12:53:17;101889.81;;;9.78;100.00
57562;BME280;43397;51.530;5.974;2023-02-16T12:55:51;101887.28;;;9.89;100.00
57562;BME280;43397;51.530;5.974;2023-02-16T12:58:22;101881.41;;;10.21;100.00
57562;BME280;43397;51.530;5.974;2023-02-16T13:00:51;101882.44;;;10.31;100.00
57562;BME280;43397;51.530;5.974;2023-02-16T13:03:31;101878.84;;;11.65;100.00
57562;BME280;43397;51.530;5.974;2023-02-16T13:06:05;101855.63;;;11.24;100.00
57562;BME280;43397;51.530;5.974;2023-02-16T13:08:38;101868.28;;;13.32;94.47
57562;BME280;43397;51.530;5.974;2023-02-16T13:11:13;101856.53;;;13.73;85.77
57562;BME280;43397;51.530;5.974;2023-02-16T13:13:43;101856.75;;;13.29;89.09